createdAt,value
2023-04-20T00:00:38.327Z,4.22
2023-04-20T00:03:05.044Z,3.97
2023-04-20T00:05:32.202Z,3.75
2023-04-20T00:07:59.235Z,4.03
2023-04-20T00:10:25.750Z,4.05
2023-04-20T00:12:52.243Z,4.22
2023-04-20T00:15:18.797Z,4.30
2023-04-20T00:17:46.522Z,3.75
2023-04-20T00:20:13.140Z,3.60
2023-04-20T00:22:39.745Z,2.83
2023-04-20T00:25:07.018Z,3.60
2023-04-20T00:27:33.540Z,3.88
2023-04-20T00:30:00.050Z,3.63
2023-04-20T00:32:28.439Z,3.13
2023-04-20T00:34:55.003Z,3.25
2023-04-20T00:37:21.455Z,3.10
2023-04-20T00:39:48.117Z,3.60
2023-04-20T00:42:14.583Z,4.10
2023-04-20T00:44:41.081Z,3.85
2023-04-20T00:47:07.541Z,3.50
2023-04-20T00:49:34.091Z,3.38
2023-04-20T00:52:01.063Z,3.60
2023-04-20T00:54:30.390Z,4.30
2023-04-20T00:56:58.128Z,3.28
2023-04-20T00:59:24.783Z,3.33
2023-04-20T01:01:51.308Z,3.42
2023-04-20T01:04:18.793Z,3.67
2023-04-20T01:06:46.050Z,3.40
2023-04-20T01:09:13.057Z,2.97
2023-04-20T01:11:39.768Z,3.33
2023-04-20T01:14:06.737Z,3.50
2023-04-20T01:16:34.926Z,3.40
2023-04-20T01:19:01.572Z,3.30
2023-04-20T01:21:28.179Z,3.78
2023-04-20T01:23:54.744Z,3.75
2023-04-20T01:26:23.895Z,3.00
2023-04-20T01:28:50.566Z,3.20
2023-04-20T01:31:17.559Z,3.53
2023-04-20T01:33:44.060Z,3.58
2023-04-20T01:36:10.819Z,3.40
2023-04-20T01:38:37.489Z,4.00
2023-04-20T01:41:06.462Z,3.50
2023-04-20T01:43:34.418Z,3.50
2023-04-20T01:46:01.349Z,3.78
2023-04-20T01:48:27.948Z,3.83
2023-04-20T01:50:54.691Z,3.25
2023-04-20T01:53:21.180Z,3.25
2023-04-20T01:55:48.534Z,4.13
2023-04-20T01:58:15.178Z,3.70
2023-04-20T02:00:41.666Z,3.90
2023-04-20T02:03:08.469Z,4.10
2023-04-20T02:05:35.208Z,3.03
2023-04-20T02:08:01.711Z,3.40
2023-04-20T02:10:28.246Z,3.78
2023-04-20T02:12:54.733Z,3.83
2023-04-20T02:15:21.222Z,3.80
2023-04-20T02:17:52.196Z,3.42
2023-04-20T02:20:20.012Z,3.22
2023-04-20T02:22:46.601Z,3.10
2023-04-20T02:25:14.348Z,3.72
2023-04-20T02:27:41.132Z,3.75
2023-04-20T02:30:08.380Z,4.28
2023-04-20T02:32:35.166Z,4.00
2023-04-20T02:35:02.244Z,3.92
2023-04-20T02:37:28.795Z,3.90
2023-04-20T02:39:55.592Z,3.92
2023-04-20T02:42:22.079Z,3.55
2023-04-20T02:44:48.539Z,3.92
2023-04-20T02:47:14.993Z,3.70
2023-04-20T02:49:41.503Z,4.03
2023-04-20T02:52:07.978Z,3.83
2023-04-20T02:54:34.484Z,3.70
2023-04-20T02:57:01.610Z,4.03
2023-04-20T02:59:28.105Z,3.85
2023-04-20T03:01:54.687Z,4.20
2023-04-20T03:04:22.038Z,4.68
2023-04-20T03:06:50.600Z,4.53
2023-04-20T03:09:17.455Z,5.00
2023-04-20T03:11:45.419Z,4.63
2023-04-20T03:14:12.111Z,6.30
2023-04-20T03:16:38.657Z,2.28
2023-04-20T03:19:05.267Z,5.55
2023-04-20T03:21:37.201Z,3.85
2023-04-20T03:24:06.172Z,5.35
2023-04-20T03:26:32.787Z,3.40
2023-04-20T03:28:59.314Z,4.72
2023-04-20T03:31:26.281Z,5.00
2023-04-20T03:33:52.817Z,5.57
2023-04-20T03:36:19.263Z,5.47
2023-04-20T03:38:45.795Z,1.63
2023-04-20T03:41:12.335Z,5.65
2023-04-20T03:43:38.782Z,5.45
2023-04-20T03:46:05.422Z,5.40
2023-04-20T03:48:32.882Z,4.55
2023-04-20T03:50:59.402Z,4.47
2023-04-20T03:53:26.468Z,5.07
2023-04-20T03:55:52.974Z,5.57
2023-04-20T03:58:19.481Z,3.95
2023-04-20T04:00:46.234Z,4.45
2023-04-20T04:03:13.118Z,5.70
2023-04-20T04:05:41.365Z,5.63
2023-04-20T04:08:08.054Z,5.47
2023-04-20T04:10:34.537Z,4.88
2023-04-20T04:13:01.099Z,5.28
2023-04-20T04:15:27.620Z,4.85
2023-04-20T04:17:55.113Z,4.13
2023-04-20T04:20:21.587Z,5.28
2023-04-20T04:22:48.113Z,4.55
2023-04-20T04:25:15.112Z,4.55
2023-04-20T04:27:41.563Z,4.55
2023-04-20T04:30:08.852Z,4.78
2023-04-20T04:32:36.001Z,5.18
2023-04-20T04:35:02.589Z,2.35
2023-04-20T04:37:29.103Z,5.05
2023-04-20T04:39:55.715Z,5.38
2023-04-20T04:42:22.234Z,5.45
2023-04-20T04:44:48.741Z,5.35
2023-04-20T04:47:17.570Z,4.10
2023-04-20T04:49:45.510Z,5.28
2023-04-20T04:52:12.039Z,4.15
2023-04-20T04:54:38.528Z,5.57
2023-04-20T04:57:05.019Z,5.47
2023-04-20T04:59:31.530Z,3.85
2023-04-20T05:01:58.175Z,4.68
2023-04-20T05:04:24.751Z,4.45
2023-04-20T05:06:51.411Z,4.97
2023-04-20T05:09:18.065Z,4.10
2023-04-20T05:11:44.695Z,4.35
2023-04-20T05:14:11.316Z,2.72
2023-04-20T05:16:37.981Z,5.35
2023-04-20T05:19:04.891Z,5.55
2023-04-20T05:21:32.776Z,6.05
2023-04-20T05:23:59.289Z,4.55
2023-04-20T05:26:25.799Z,4.85
2023-04-20T05:28:52.296Z,5.28
2023-04-20T05:31:18.812Z,5.32
2023-04-20T05:33:45.381Z,5.30
2023-04-20T05:36:11.849Z,5.28
2023-04-20T05:38:38.798Z,3.03
2023-04-20T05:41:05.420Z,4.85
2023-04-20T05:43:32.029Z,5.07
2023-04-20T05:45:58.795Z,6.05
2023-04-20T05:48:29.583Z,5.30
2023-04-20T05:50:56.674Z,5.93
2023-04-20T05:53:23.186Z,6.38
2023-04-20T05:55:49.996Z,5.63
2023-04-20T05:58:17.040Z,2.67
2023-04-20T06:00:44.393Z,5.90
2023-04-20T06:03:11.119Z,5.28
2023-04-20T06:05:38.013Z,4.88
2023-04-20T06:08:04.850Z,5.18
2023-04-20T06:10:34.050Z,4.68
2023-04-20T06:13:00.879Z,5.93
2023-04-20T06:15:27.363Z,5.90
2023-04-20T06:17:53.980Z,6.57
2023-04-20T06:20:20.679Z,6.13
2023-04-20T06:22:47.399Z,6.15
2023-04-20T06:25:15.297Z,6.53
2023-04-20T06:27:42.272Z,6.28
2023-04-20T06:30:09.816Z,7.13
2023-04-20T06:32:36.557Z,7.45
2023-04-20T06:35:04.202Z,6.68
2023-04-20T06:37:30.827Z,6.13
2023-04-20T06:39:57.308Z,6.57
2023-04-20T06:42:23.803Z,6.40
2023-04-20T06:44:50.840Z,6.78
2023-04-20T06:47:17.355Z,6.78
2023-04-20T06:49:43.840Z,8.32
2023-04-20T06:52:10.367Z,7.00
2023-04-20T06:54:36.845Z,6.80
2023-04-20T06:57:03.376Z,4.85
2023-04-20T06:59:29.925Z,6.40
2023-04-20T07:01:56.542Z,6.22
2023-04-20T07:04:23.073Z,6.47
2023-04-20T07:06:53.818Z,5.22
2023-04-20T07:09:20.943Z,6.05
2023-04-20T07:11:47.453Z,6.88
2023-04-20T07:14:14.395Z,6.45
2023-04-20T07:16:41.011Z,6.38
2023-04-20T07:19:07.640Z,5.70
2023-04-20T07:21:35.593Z,6.63
2023-04-20T07:24:02.263Z,7.43
2023-04-20T07:26:28.775Z,7.10
2023-04-20T07:28:55.398Z,4.88
2023-04-20T07:31:21.888Z,6.30
2023-04-20T07:33:48.415Z,5.63
2023-04-20T07:36:14.851Z,5.75
2023-04-20T07:38:41.291Z,7.50
2023-04-20T07:41:13.137Z,5.80
2023-04-20T07:43:39.634Z,7.18
2023-04-20T07:46:06.265Z,5.40
2023-04-20T07:48:35.653Z,6.82
2023-04-20T07:51:02.163Z,6.43
2023-04-20T07:53:31.944Z,6.25
2023-04-20T07:55:58.570Z,6.70
2023-04-20T07:58:25.176Z,6.40
2023-04-20T08:00:51.724Z,5.13
2023-04-20T08:03:18.472Z,6.32
2023-04-20T08:05:46.002Z,6.43
2023-04-20T08:08:12.668Z,6.90
2023-04-20T08:10:39.133Z,6.18
2023-04-20T08:13:05.733Z,7.15
2023-04-20T08:15:32.265Z,6.75
2023-04-20T08:17:58.930Z,5.88
2023-04-20T08:20:25.531Z,7.03
2023-04-20T08:22:53.263Z,7.18
2023-04-20T08:25:19.798Z,7.07
2023-04-20T08:27:46.357Z,7.20
2023-04-20T08:30:13.016Z,8.25
2023-04-20T08:32:41.090Z,6.43
2023-04-20T08:35:09.333Z,7.68
2023-04-20T08:37:37.488Z,8.32
2023-04-20T08:40:04.262Z,7.30
2023-04-20T08:42:30.967Z,6.60
2023-04-20T08:44:58.205Z,8.57
2023-04-20T08:47:25.934Z,6.63
2023-04-20T08:49:54.878Z,7.55
2023-04-20T08:52:21.443Z,8.95
2023-04-20T08:54:56.137Z,7.65
2023-04-20T08:57:23.613Z,8.63
2023-04-20T08:59:50.078Z,3.55
2023-04-20T09:02:16.632Z,8.75
2023-04-20T09:04:43.473Z,10.10
2023-04-20T09:07:21.182Z,9.73
2023-04-20T09:09:57.816Z,9.43
2023-04-20T09:12:24.798Z,9.63
2023-04-20T09:14:52.670Z,9.35
2023-04-20T09:17:34.144Z,9.27
2023-04-20T09:20:01.043Z,6.93
2023-04-20T09:22:35.636Z,8.07
2023-04-20T09:25:18.562Z,8.15
2023-04-20T09:28:05.471Z,4.03
2023-04-20T09:30:40.200Z,7.75
2023-04-20T09:33:12.277Z,8.07
2023-04-20T09:35:40.457Z,6.70
2023-04-20T09:38:08.305Z,6.50
2023-04-20T09:40:35.426Z,6.47
2023-04-20T09:43:14.819Z,6.07
2023-04-20T09:45:42.530Z,6.50
2023-04-20T09:48:09.147Z,5.63
2023-04-20T09:50:48.664Z,6.90
2023-04-20T09:53:17.804Z,6.43
2023-04-20T09:55:51.754Z,5.60
2023-04-20T09:58:20.415Z,6.65
2023-04-20T10:00:47.276Z,6.25
2023-04-20T10:03:17.536Z,6.47
2023-04-20T10:05:44.229Z,6.95
2023-04-20T10:08:11.151Z,6.57
2023-04-20T10:10:49.202Z,6.35
2023-04-20T10:13:21.794Z,7.18
2023-04-20T10:15:48.357Z,7.47
2023-04-20T10:18:25.498Z,6.57
2023-04-20T10:21:03.752Z,8.88
2023-04-20T10:23:30.568Z,10.70
2023-04-20T10:25:59.082Z,10.02
2023-04-20T10:28:26.276Z,12.57
2023-04-20T10:30:53.939Z,11.30
2023-04-20T10:33:20.834Z,11.93
2023-04-20T10:35:54.721Z,11.60
2023-04-20T10:38:34.432Z,9.90
2023-04-20T10:41:11.366Z,10.55
2023-04-20T10:43:43.309Z,9.45
2023-04-20T10:46:24.525Z,8.63
2023-04-20T10:48:51.753Z,9.63
2023-04-20T10:51:18.731Z,9.73
2023-04-20T10:53:45.287Z,8.38
2023-04-20T10:56:12.015Z,7.93
2023-04-20T10:58:38.518Z,8.52
2023-04-20T11:01:05.489Z,6.53
2023-04-20T11:03:34.381Z,6.40
2023-04-20T11:06:02.476Z,6.43
2023-04-20T11:08:43.256Z,7.28
2023-04-20T11:11:30.057Z,6.28
2023-04-20T11:14:07.653Z,6.82
2023-04-20T11:16:48.047Z,5.25
2023-04-20T11:19:26.339Z,4.78
2023-04-20T11:21:53.210Z,7.00
2023-04-20T11:24:30.899Z,5.45
2023-04-20T11:26:58.116Z,5.07
2023-04-20T11:29:38.658Z,7.82
2023-04-20T11:32:10.560Z,6.70
2023-04-20T11:34:39.134Z,5.85
2023-04-20T11:37:05.592Z,6.00
2023-04-20T11:39:32.461Z,6.72
2023-04-20T11:41:59.626Z,6.43
2023-04-20T11:44:26.427Z,7.20
2023-04-20T11:46:56.990Z,6.47
2023-04-20T11:49:28.895Z,6.93
2023-04-20T11:51:55.440Z,5.85
2023-04-20T11:54:22.209Z,6.70
2023-04-20T11:56:48.918Z,5.82
2023-04-20T11:59:16.899Z,6.57
2023-04-20T12:01:43.555Z,6.10
2023-04-20T12:04:10.344Z,5.38
2023-04-20T12:06:37.219Z,5.97
2023-04-20T12:09:06.197Z,5.32
2023-04-20T12:11:32.712Z,5.18
2023-04-20T12:14:00.307Z,6.20
2023-04-20T12:16:26.996Z,6.68
2023-04-20T12:18:55.666Z,7.35
2023-04-20T12:21:22.377Z,5.38
2023-04-20T12:23:51.118Z,6.43
2023-04-20T12:26:17.869Z,6.00
2023-04-20T12:28:45.315Z,6.18
2023-04-20T12:31:12.022Z,6.25
2023-04-20T12:33:38.636Z,6.90
2023-04-20T12:36:05.431Z,6.65
2023-04-20T12:38:31.866Z,6.60
2023-04-20T12:40:58.401Z,6.13
2023-04-20T12:43:24.893Z,5.57
2023-04-20T12:45:51.366Z,6.97
2023-04-20T12:48:17.912Z,5.88
2023-04-20T12:50:44.450Z,6.80
2023-04-20T12:53:11.041Z,6.47
2023-04-20T12:55:37.533Z,7.05
2023-04-20T12:58:04.048Z,7.28
2023-04-20T13:00:30.668Z,6.45
2023-04-20T13:02:57.309Z,6.95
2023-04-20T13:05:23.910Z,8.48
2023-04-20T13:07:50.669Z,7.18
2023-04-20T13:10:17.762Z,7.43
2023-04-20T13:12:44.248Z,7.85
2023-04-20T13:15:12.956Z,8.60
2023-04-20T13:17:39.447Z,8.43
2023-04-20T13:20:06.541Z,8.45
2023-04-20T13:22:35.757Z,8.75
2023-04-20T13:25:06.553Z,8.40
2023-04-20T13:27:33.412Z,8.93
2023-04-20T13:29:59.899Z,8.25
2023-04-20T13:32:26.584Z,8.40
2023-04-20T13:34:53.178Z,8.40
2023-04-20T13:37:20.002Z,8.45
2023-04-20T13:39:47.581Z,8.88
2023-04-20T13:42:14.024Z,9.40
2023-04-20T13:44:40.649Z,8.90
2023-04-20T13:47:07.102Z,10.38
2023-04-20T13:49:33.598Z,9.45
2023-04-20T13:52:00.153Z,8.77
2023-04-20T13:54:26.671Z,9.45
2023-04-20T13:56:53.145Z,8.38
2023-04-20T13:59:19.600Z,9.95
2023-04-20T14:01:46.200Z,8.95
2023-04-20T14:04:13.104Z,9.57
2023-04-20T14:06:39.598Z,8.95
2023-04-20T14:09:06.147Z,8.55
2023-04-20T14:11:32.752Z,7.55
2023-04-20T14:13:59.314Z,8.35
2023-04-20T14:16:26.389Z,8.93
2023-04-20T14:18:52.915Z,8.18
2023-04-20T14:21:19.440Z,7.93
2023-04-20T14:23:45.993Z,7.97
2023-04-20T14:26:12.786Z,8.55
2023-04-20T14:28:39.311Z,8.98
2023-04-20T14:31:05.818Z,9.57
2023-04-20T14:33:32.251Z,10.52
2023-04-20T14:35:58.989Z,9.38
2023-04-20T14:38:25.566Z,9.82
2023-04-20T14:40:52.449Z,10.00
2023-04-20T14:43:19.208Z,9.45
2023-04-20T14:45:46.370Z,9.80
2023-04-20T14:48:13.110Z,9.13
2023-04-20T14:50:39.851Z,9.18
2023-04-20T14:53:06.371Z,9.38
2023-04-20T14:55:32.928Z,8.15
2023-04-20T14:57:59.404Z,8.93
2023-04-20T15:00:30.032Z,9.38
2023-04-20T15:02:56.979Z,8.23
2023-04-20T15:05:26.340Z,8.23
2023-04-20T15:07:53.231Z,6.97
2023-04-20T15:10:20.427Z,7.03
2023-04-20T15:12:47.907Z,7.05
2023-04-20T15:15:14.647Z,7.22
2023-04-20T15:17:41.223Z,8.07
2023-04-20T15:20:09.106Z,7.07
2023-04-20T15:22:36.479Z,7.18
2023-04-20T15:25:03.473Z,6.95
2023-04-20T15:27:30.012Z,6.90
2023-04-20T15:29:58.449Z,7.50
2023-04-20T15:32:25.797Z,7.50
2023-04-20T15:34:52.708Z,8.23
2023-04-20T15:37:19.340Z,6.32
2023-04-20T15:39:45.899Z,7.45
2023-04-20T15:42:12.398Z,7.25
2023-04-20T15:44:40.540Z,8.48
2023-04-20T15:47:07.390Z,7.95
2023-04-20T15:49:35.908Z,7.75
2023-04-20T15:52:03.745Z,7.72
2023-04-20T15:54:30.248Z,7.07
2023-04-20T15:56:56.861Z,6.30
2023-04-20T15:59:23.339Z,6.68
2023-04-20T16:01:49.865Z,6.97
2023-04-20T16:04:16.734Z,6.53
2023-04-20T16:06:43.488Z,6.57
2023-04-20T16:09:09.970Z,4.90
2023-04-20T16:11:36.520Z,6.25
2023-04-20T16:14:03.113Z,6.43
2023-04-20T16:16:29.759Z,6.85
2023-04-20T16:18:56.266Z,6.75
2023-04-20T16:21:23.380Z,4.07
2023-04-20T16:23:54.265Z,6.05
2023-04-20T16:26:21.262Z,6.30
2023-04-20T16:28:47.838Z,5.80
2023-04-20T16:31:14.474Z,6.95
2023-04-20T16:33:41.482Z,6.32
2023-04-20T16:36:08.357Z,6.05
2023-04-20T16:38:34.869Z,5.55
2023-04-20T16:41:01.330Z,6.43
2023-04-20T16:43:27.793Z,5.80
2023-04-20T16:45:54.435Z,6.40
2023-04-20T16:48:21.117Z,6.28
2023-04-20T16:50:47.706Z,6.60
2023-04-20T16:53:14.182Z,6.03
2023-04-20T16:55:40.686Z,5.78
2023-04-20T16:58:07.206Z,6.97
2023-04-20T17:00:34.218Z,6.10
2023-04-20T17:03:01.333Z,6.18
2023-04-20T17:05:29.174Z,6.18
2023-04-20T17:07:55.644Z,5.97
2023-04-20T17:10:22.564Z,6.80
2023-04-20T17:12:49.913Z,5.82
2023-04-20T17:15:16.529Z,5.65
2023-04-20T17:17:43.052Z,6.65
2023-04-20T17:20:10.001Z,6.28
2023-04-20T17:22:36.503Z,6.82
2023-04-20T17:25:06.462Z,6.82
2023-04-20T17:27:33.752Z,7.22
2023-04-20T17:30:00.307Z,5.68
2023-04-20T17:32:26.972Z,5.85
2023-04-20T17:34:53.889Z,6.25
2023-04-20T17:37:21.287Z,6.80
2023-04-20T17:39:47.821Z,6.93
2023-04-20T17:42:14.821Z,8.10
2023-04-20T17:44:41.387Z,7.25
2023-04-20T17:47:09.524Z,8.30
2023-04-20T17:49:36.613Z,7.53
2023-04-20T17:52:03.794Z,8.18
2023-04-20T17:54:30.301Z,7.35
2023-04-20T17:56:58.144Z,8.02
2023-04-20T17:59:24.662Z,8.27
2023-04-20T18:01:51.266Z,7.80
2023-04-20T18:04:18.213Z,8.55
2023-04-20T18:06:45.166Z,8.25
2023-04-20T18:09:14.064Z,7.95
2023-04-20T18:11:40.663Z,9.05
2023-04-20T18:14:07.112Z,9.63
2023-04-20T18:16:33.671Z,18.17
2023-04-20T18:19:00.185Z,10.10
2023-04-20T18:21:26.725Z,15.13
2023-04-20T18:23:53.306Z,10.70
2023-04-20T18:26:20.478Z,12.80
2023-04-20T18:28:47.676Z,10.75
2023-04-20T18:31:14.194Z,9.68
2023-04-20T18:33:40.727Z,9.40
2023-04-20T18:36:07.329Z,9.25
2023-04-20T18:38:35.152Z,12.98
2023-04-20T18:41:02.312Z,9.57
2023-04-20T18:43:28.858Z,10.55
2023-04-20T18:45:55.410Z,10.93
2023-04-20T18:48:21.862Z,14.10
2023-04-20T18:50:48.357Z,10.40
2023-04-20T18:53:14.910Z,10.10
2023-04-20T18:55:41.606Z,9.77
2023-04-20T18:58:08.144Z,10.27
2023-04-20T19:00:34.607Z,10.65
2023-04-20T19:03:01.315Z,12.52
2023-04-20T19:05:28.310Z,12.13
2023-04-20T19:07:54.824Z,11.55
2023-04-20T19:10:21.292Z,11.75
2023-04-20T19:12:47.748Z,12.02
2023-04-20T19:15:14.251Z,12.23
2023-04-20T19:17:41.898Z,12.90
2023-04-20T19:20:09.032Z,11.80
2023-04-20T19:22:35.532Z,12.57
2023-04-20T19:25:02.371Z,12.73
2023-04-20T19:27:28.921Z,12.20
2023-04-20T19:29:55.380Z,11.98
2023-04-20T19:32:21.898Z,12.15
2023-04-20T19:34:48.419Z,10.98
2023-04-20T19:37:14.948Z,12.00
2023-04-20T19:39:41.476Z,13.02
2023-04-20T19:42:07.934Z,13.48
2023-04-20T19:44:35.799Z,14.52
2023-04-20T19:47:02.299Z,13.60
2023-04-20T19:49:28.765Z,14.40
2023-04-20T19:51:56.060Z,14.73
2023-04-20T19:54:22.940Z,14.73
2023-04-20T19:56:49.431Z,15.80
2023-04-20T19:59:16.121Z,14.90
2023-04-20T20:01:42.694Z,15.95
2023-04-20T20:04:09.507Z,15.93
2023-04-20T20:06:36.302Z,16.33
2023-04-20T20:09:04.005Z,16.75
2023-04-20T20:11:30.528Z,16.50
2023-04-20T20:13:57.072Z,16.10
2023-04-20T20:16:23.578Z,16.75
2023-04-20T20:18:50.964Z,16.30
2023-04-20T20:21:17.632Z,17.85
2023-04-20T20:23:44.096Z,16.65
2023-04-20T20:26:10.596Z,18.35
2023-04-20T20:28:37.066Z,17.10
2023-04-20T20:31:03.573Z,15.98
2023-04-20T20:33:30.002Z,16.60
2023-04-20T20:35:56.463Z,12.60
2023-04-20T20:38:22.901Z,17.88
2023-04-20T20:40:50.561Z,16.88
2023-04-20T20:43:18.833Z,16.38
2023-04-20T20:45:45.423Z,16.48
2023-04-20T20:48:11.879Z,16.63
2023-04-20T20:50:38.392Z,16.98
2023-04-20T20:53:04.847Z,15.77
2023-04-20T20:55:31.331Z,16.48
2023-04-20T20:57:57.754Z,15.45
2023-04-20T21:00:24.464Z,14.80
2023-04-20T21:02:52.457Z,17.25
2023-04-20T21:05:19.216Z,13.32
2023-04-20T21:07:45.757Z,16.58
2023-04-20T21:10:12.237Z,15.90
2023-04-20T21:12:38.677Z,15.82
2023-04-20T21:15:05.694Z,16.75
2023-04-20T21:17:32.133Z,16.10
2023-04-20T21:19:58.616Z,14.73
2023-04-20T21:22:25.322Z,15.63
2023-04-20T21:24:51.747Z,14.88
2023-04-20T21:27:18.187Z,15.43
2023-04-20T21:29:44.632Z,15.60
2023-04-20T21:32:11.213Z,15.35
2023-04-20T21:34:37.718Z,14.88
2023-04-20T21:37:05.500Z,14.23
2023-04-20T21:39:32.478Z,15.85
2023-04-20T21:41:59.714Z,15.00
2023-04-20T21:44:26.433Z,15.80
2023-04-20T21:46:52.970Z,14.98
2023-04-20T21:49:19.642Z,14.25
2023-04-20T21:51:46.286Z,14.85
2023-04-20T21:54:12.813Z,14.77
2023-04-20T21:56:39.274Z,14.32
2023-04-20T21:59:05.760Z,15.50
2023-04-20T22:01:32.240Z,11.93
2023-04-20T22:03:58.868Z,15.57
2023-04-20T22:06:25.690Z,13.40
2023-04-20T22:08:52.126Z,13.65
2023-04-20T22:11:18.600Z,15.15
2023-04-20T22:13:45.292Z,14.23
2023-04-20T22:16:11.870Z,14.25
2023-04-20T22:18:38.364Z,16.23
2023-04-20T22:21:04.855Z,14.75
2023-04-20T22:23:31.379Z,15.20
2023-04-20T22:25:57.866Z,15.48
2023-04-20T22:28:24.377Z,14.20
2023-04-20T22:30:50.866Z,15.90
2023-04-20T22:33:17.352Z,14.02
2023-04-20T22:35:43.810Z,13.65
2023-04-20T22:38:10.416Z,13.77
2023-04-20T22:40:36.905Z,14.57
2023-04-20T22:43:03.440Z,14.50
2023-04-20T22:45:29.880Z,15.73
2023-04-20T22:47:56.388Z,14.63
2023-04-20T22:50:23.026Z,16.35
2023-04-20T22:52:50.562Z,15.95
2023-04-20T22:55:17.125Z,16.55
2023-04-20T22:57:43.681Z,17.70
2023-04-20T23:00:11.013Z,16.55
2023-04-20T23:02:37.969Z,17.00
2023-04-20T23:05:05.725Z,16.70
2023-04-20T23:07:32.999Z,19.63
2023-04-20T23:10:00.085Z,18.45
2023-04-20T23:12:29.307Z,15.95
2023-04-20T23:14:56.698Z,17.55
2023-04-20T23:17:23.424Z,17.67
2023-04-20T23:19:50.891Z,17.48
2023-04-20T23:22:17.472Z,17.45
2023-04-20T23:24:44.032Z,18.55
2023-04-20T23:27:10.466Z,17.73
2023-04-20T23:29:36.943Z,20.23
2023-04-20T23:32:03.661Z,19.02
2023-04-20T23:34:30.429Z,18.23
2023-04-20T23:36:57.047Z,16.58
2023-04-20T23:39:23.486Z,22.35
2023-04-20T23:41:52.551Z,20.17
2023-04-20T23:44:19.004Z,19.35
2023-04-20T23:46:46.318Z,20.50
2023-04-20T23:49:12.767Z,21.38
2023-04-20T23:51:39.206Z,19.40
2023-04-20T23:54:05.772Z,19.27
2023-04-20T23:56:32.264Z,20.70
2023-04-20T23:58:59.161Z,21.67
